sensor_id;sensor_type;location;lat;lon;timestamp;P1;durP1;ratioP1;P2;durP2;ratioP2
75171;SDS011;63750;52.418;20.742;2024-01-27T00:01:54;5.80;;;2.80;;
75171;SDS011;63750;52.418;20.742;2024-01-27T00:04:23;4.10;;;2.70;;
75171;SDS011;63750;52.418;20.742;2024-01-27T00:06:51;4.60;;;2.90;;
75171;SDS011;63750;52.418;20.742;2024-01-27T00:09:19;4.50;;;2.60;;
75171;SDS011;63750;52.418;20.742;2024-01-27T00:11:49;4.20;;;2.30;;
75171;SDS011;63750;52.418;20.742;2024-01-27T00:14:18;2.90;;;2.00;;
75171;SDS011;63750;52.418;20.742;2024-01-27T00:16:46;4.60;;;2.00;;
75171;SDS011;63750;52.418;20.742;2024-01-27T00:19:14;6.70;;;2.20;;
75171;SDS011;63750;52.418;20.742;2024-01-27T00:21:43;3.60;;;1.80;;
75171;SDS011;63750;52.418;20.742;2024-01-27T00:24:11;5.10;;;1.90;;
75171;SDS011;63750;52.418;20.742;2024-01-27T00:26:41;4.10;;;1.90;;
75171;SDS011;63750;52.418;20.742;2024-01-27T00:29:09;4.50;;;2.20;;
75171;SDS011;63750;52.418;20.742;2024-01-27T00:31:38;4.80;;;2.00;;
75171;SDS011;63750;52.418;20.742;2024-01-27T00:34:06;7.00;;;2.30;;
75171;SDS011;63750;52.418;20.742;2024-01-27T00:36:34;4.40;;;2.50;;
75171;SDS011;63750;52.418;20.742;2024-01-27T00:39:03;4.30;;;2.10;;
75171;SDS011;63750;52.418;20.742;2024-01-27T00:41:31;7.10;;;2.30;;
75171;SDS011;63750;52.418;20.742;2024-01-27T00:43:59;7.20;;;2.10;;
75171;SDS011;63750;52.418;20.742;2024-01-27T00:46:28;5.60;;;2.20;;
75171;SDS011;63750;52.418;20.742;2024-01-27T00:48:56;3.50;;;1.90;;
75171;SDS011;63750;52.418;20.742;2024-01-27T00:51:24;5.10;;;2.40;;
75171;SDS011;63750;52.418;20.742;2024-01-27T00:53:53;5.60;;;2.20;;
75171;SDS011;63750;52.418;20.742;2024-01-27T00:56:21;5.00;;;2.30;;
75171;SDS011;63750;52.418;20.742;2024-01-27T00:58:49;4.30;;;2.20;;
75171;SDS011;63750;52.418;20.742;2024-01-27T01:01:18;5.70;;;2.30;;
75171;SDS011;63750;52.418;20.742;2024-01-27T01:03:46;9.20;;;2.50;;
75171;SDS011;63750;52.418;20.742;2024-01-27T01:06:14;7.10;;;2.50;;
75171;SDS011;63750;52.418;20.742;2024-01-27T01:08:43;4.70;;;2.30;;
75171;SDS011;63750;52.418;20.742;2024-01-27T01:11:11;6.00;;;2.50;;
75171;SDS011;63750;52.418;20.742;2024-01-27T01:13:39;7.60;;;2.40;;
75171;SDS011;63750;52.418;20.742;2024-01-27T01:16:08;4.70;;;1.90;;
75171;SDS011;63750;52.418;20.742;2024-01-27T01:18:36;6.10;;;2.50;;
75171;SDS011;63750;52.418;20.742;2024-01-27T01:21:06;5.80;;;2.70;;
75171;SDS011;63750;52.418;20.742;2024-01-27T01:23:34;5.50;;;2.50;;
75171;SDS011;63750;52.418;20.742;2024-01-27T01:26:02;5.20;;;2.30;;
75171;SDS011;63750;52.418;20.742;2024-01-27T01:28:31;7.70;;;2.70;;
75171;SDS011;63750;52.418;20.742;2024-01-27T01:30:59;4.20;;;2.20;;
75171;SDS011;63750;52.418;20.742;2024-01-27T01:33:27;8.30;;;2.50;;
75171;SDS011;63750;52.418;20.742;2024-01-27T01:35:56;4.30;;;2.30;;
75171;SDS011;63750;52.418;20.742;2024-01-27T01:38:24;2.90;;;2.20;;
75171;SDS011;63750;52.418;20.742;2024-01-27T01:40:52;6.90;;;2.50;;
75171;SDS011;63750;52.418;20.742;2024-01-27T01:43:21;6.40;;;2.00;;
75171;SDS011;63750;52.418;20.742;2024-01-27T01:45:49;9.20;;;2.70;;
75171;SDS011;63750;52.418;20.742;2024-01-27T01:48:18;6.70;;;2.50;;
75171;SDS011;63750;52.418;20.742;2024-01-27T01:50:47;6.30;;;2.60;;
75171;SDS011;63750;52.418;20.742;2024-01-27T01:53:18;8.40;;;2.50;;
75171;SDS011;63750;52.418;20.742;2024-01-27T01:55:47;8.70;;;2.70;;
75171;SDS011;63750;52.418;20.742;2024-01-27T01:58:16;8.60;;;2.80;;
75171;SDS011;63750;52.418;20.742;2024-01-27T02:00:46;4.40;;;2.40;;
75171;SDS011;63750;52.418;20.742;2024-01-27T02:03:18;7.50;;;2.70;;
75171;SDS011;63750;52.418;20.742;2024-01-27T02:05:46;4.50;;;2.00;;
75171;SDS011;63750;52.418;20.742;2024-01-27T02:08:14;5.40;;;2.40;;
75171;SDS011;63750;52.418;20.742;2024-01-27T02:10:49;6.60;;;2.60;;
75171;SDS011;63750;52.418;20.742;2024-01-27T02:13:18;6.10;;;2.70;;
75171;SDS011;63750;52.418;20.742;2024-01-27T02:15:48;9.20;;;2.80;;
75171;SDS011;63750;52.418;20.742;2024-01-27T02:18:17;9.30;;;2.70;;
75171;SDS011;63750;52.418;20.742;2024-01-27T02:20:45;4.50;;;2.40;;
75171;SDS011;63750;52.418;20.742;2024-01-27T02:23:14;6.30;;;2.40;;
75171;SDS011;63750;52.418;20.742;2024-01-27T02:25:42;7.10;;;2.50;;
75171;SDS011;63750;52.418;20.742;2024-01-27T02:28:10;10.40;;;2.80;;
75171;SDS011;63750;52.418;20.742;2024-01-27T02:30:39;8.10;;;3.20;;
75171;SDS011;63750;52.418;20.742;2024-01-27T02:33:07;6.50;;;2.70;;
75171;SDS011;63750;52.418;20.742;2024-01-27T02:35:35;10.30;;;3.40;;
75171;SDS011;63750;52.418;20.742;2024-01-27T02:38:04;6.60;;;3.00;;
75171;SDS011;63750;52.418;20.742;2024-01-27T02:40:32;6.30;;;3.00;;
75171;SDS011;63750;52.418;20.742;2024-01-27T02:43:01;7.10;;;3.00;;
75171;SDS011;63750;52.418;20.742;2024-01-27T02:45:29;8.10;;;3.50;;
75171;SDS011;63750;52.418;20.742;2024-01-27T02:47:58;6.00;;;2.90;;
75171;SDS011;63750;52.418;20.742;2024-01-27T02:50:29;6.10;;;2.80;;
75171;SDS011;63750;52.418;20.742;2024-01-27T02:52:58;7.00;;;3.00;;
75171;SDS011;63750;52.418;20.742;2024-01-27T02:55:26;7.20;;;2.70;;
75171;SDS011;63750;52.418;20.742;2024-01-27T02:57:55;8.00;;;2.90;;
75171;SDS011;63750;52.418;20.742;2024-01-27T03:00:23;9.50;;;3.00;;
75171;SDS011;63750;52.418;20.742;2024-01-27T03:02:51;5.80;;;2.90;;
75171;SDS011;63750;52.418;20.742;2024-01-27T03:05:20;8.00;;;3.10;;
75171;SDS011;63750;52.418;20.742;2024-01-27T03:07:48;6.50;;;2.90;;
75171;SDS011;63750;52.418;20.742;2024-01-27T03:10:16;9.40;;;2.90;;
75171;SDS011;63750;52.418;20.742;2024-01-27T03:12:45;6.40;;;2.80;;
75171;SDS011;63750;52.418;20.742;2024-01-27T03:15:13;9.50;;;3.10;;
75171;SDS011;63750;52.418;20.742;2024-01-27T03:17:41;6.50;;;2.40;;
75171;SDS011;63750;52.418;20.742;2024-01-27T03:20:10;6.90;;;3.20;;
75171;SDS011;63750;52.418;20.742;2024-01-27T03:22:39;7.10;;;2.70;;
75171;SDS011;63750;52.418;20.742;2024-01-27T03:25:08;5.80;;;2.50;;
75171;SDS011;63750;52.418;20.742;2024-01-27T03:27:37;7.10;;;2.70;;
75171;SDS011;63750;52.418;20.742;2024-01-27T03:30:06;5.80;;;2.90;;
75171;SDS011;63750;52.418;20.742;2024-01-27T03:32:35;8.30;;;2.40;;
75171;SDS011;63750;52.418;20.742;2024-01-27T03:35:04;5.30;;;2.70;;
75171;SDS011;63750;52.418;20.742;2024-01-27T03:37:33;8.50;;;2.60;;
75171;SDS011;63750;52.418;20.742;2024-01-27T03:40:01;9.70;;;2.70;;
75171;SDS011;63750;52.418;20.742;2024-01-27T03:42:30;5.90;;;2.80;;
75171;SDS011;63750;52.418;20.742;2024-01-27T03:44:59;7.90;;;3.10;;
75171;SDS011;63750;52.418;20.742;2024-01-27T03:47:27;10.20;;;2.50;;
75171;SDS011;63750;52.418;20.742;2024-01-27T03:49:56;5.40;;;2.70;;
75171;SDS011;63750;52.418;20.742;2024-01-27T03:52:24;7.00;;;2.90;;
75171;SDS011;63750;52.418;20.742;2024-01-27T03:54:52;7.10;;;2.50;;
75171;SDS011;63750;52.418;20.742;2024-01-27T03:57:21;5.50;;;2.30;;
75171;SDS011;63750;52.418;20.742;2024-01-27T03:59:49;7.20;;;2.60;;
75171;SDS011;63750;52.418;20.742;2024-01-27T04:02:17;5.70;;;2.30;;
75171;SDS011;63750;52.418;20.742;2024-01-27T04:04:46;6.40;;;2.90;;
75171;SDS011;63750;52.418;20.742;2024-01-27T04:07:14;7.20;;;2.60;;
75171;SDS011;63750;52.418;20.742;2024-01-27T04:09:42;8.40;;;3.10;;
75171;SDS011;63750;52.418;20.742;2024-01-27T04:12:11;5.10;;;2.60;;
75171;SDS011;63750;52.418;20.742;2024-01-27T04:14:39;5.30;;;2.60;;
75171;SDS011;63750;52.418;20.742;2024-01-27T04:17:07;6.50;;;2.80;;
75171;SDS011;63750;52.418;20.742;2024-01-27T04:19:36;3.60;;;2.40;;
75171;SDS011;63750;52.418;20.742;2024-01-27T04:22:04;8.90;;;2.80;;
75171;SDS011;63750;52.418;20.742;2024-01-27T04:24:32;9.50;;;3.00;;
75171;SDS011;63750;52.418;20.742;2024-01-27T04:27:01;8.60;;;3.20;;
75171;SDS011;63750;52.418;20.742;2024-01-27T04:29:30;9.90;;;3.20;;
75171;SDS011;63750;52.418;20.742;2024-01-27T04:31:58;8.70;;;3.10;;
75171;SDS011;63750;52.418;20.742;2024-01-27T04:34:26;6.60;;;2.60;;
75171;SDS011;63750;52.418;20.742;2024-01-27T04:36:55;8.90;;;3.30;;
75171;SDS011;63750;52.418;20.742;2024-01-27T04:39:25;7.80;;;3.40;;
75171;SDS011;63750;52.418;20.742;2024-01-27T04:41:53;7.90;;;4.00;;
75171;SDS011;63750;52.418;20.742;2024-01-27T04:44:21;10.00;;;3.00;;
75171;SDS011;63750;52.418;20.742;2024-01-27T04:46:50;6.00;;;2.90;;
75171;SDS011;63750;52.418;20.742;2024-01-27T04:49:18;8.30;;;3.40;;
75171;SDS011;63750;52.418;20.742;2024-01-27T04:51:46;7.40;;;3.40;;
75171;SDS011;63750;52.418;20.742;2024-01-27T04:54:15;8.10;;;4.00;;
75171;SDS011;63750;52.418;20.742;2024-01-27T04:56:43;9.30;;;3.50;;
75171;SDS011;63750;52.418;20.742;2024-01-27T04:59:12;13.60;;;3.80;;
75171;SDS011;63750;52.418;20.742;2024-01-27T05:01:43;7.30;;;2.90;;
75171;SDS011;63750;52.418;20.742;2024-01-27T05:04:12;8.60;;;3.30;;
75171;SDS011;63750;52.418;20.742;2024-01-27T05:06:44;7.20;;;3.40;;
75171;SDS011;63750;52.418;20.742;2024-01-27T05:09:13;7.20;;;4.00;;
75171;SDS011;63750;52.418;20.742;2024-01-27T05:11:41;7.70;;;3.40;;
75171;SDS011;63750;52.418;20.742;2024-01-27T05:14:09;7.40;;;4.10;;
75171;SDS011;63750;52.418;20.742;2024-01-27T05:16:37;8.60;;;3.50;;
75171;SDS011;63750;52.418;20.742;2024-01-27T05:19:06;8.70;;;3.50;;
75171;SDS011;63750;52.418;20.742;2024-01-27T05:21:34;10.30;;;3.40;;
75171;SDS011;63750;52.418;20.742;2024-01-27T05:24:03;8.20;;;3.70;;
75171;SDS011;63750;52.418;20.742;2024-01-27T05:26:31;7.00;;;3.30;;
75171;SDS011;63750;52.418;20.742;2024-01-27T05:29:00;8.70;;;3.50;;
75171;SDS011;63750;52.418;20.742;2024-01-27T05:31:28;11.50;;;4.40;;
75171;SDS011;63750;52.418;20.742;2024-01-27T05:33:56;7.20;;;3.60;;
75171;SDS011;63750;52.418;20.742;2024-01-27T05:36:25;9.60;;;3.80;;
75171;SDS011;63750;52.418;20.742;2024-01-27T05:38:53;9.10;;;3.60;;
75171;SDS011;63750;52.418;20.742;2024-01-27T05:41:22;9.60;;;3.30;;
75171;SDS011;63750;52.418;20.742;2024-01-27T05:43:53;8.30;;;3.40;;
75171;SDS011;63750;52.418;20.742;2024-01-27T05:46:22;7.50;;;3.20;;
75171;SDS011;63750;52.418;20.742;2024-01-27T05:48:51;6.10;;;2.90;;
75171;SDS011;63750;52.418;20.742;2024-01-27T05:51:19;12.40;;;3.10;;
75171;SDS011;63750;52.418;20.742;2024-01-27T05:53:49;8.50;;;2.90;;
75171;SDS011;63750;52.418;20.742;2024-01-27T05:56:17;6.90;;;3.00;;
75171;SDS011;63750;52.418;20.742;2024-01-27T05:58:46;9.50;;;2.80;;
75171;SDS011;63750;52.418;20.742;2024-01-27T06:01:14;8.60;;;3.00;;
75171;SDS011;63750;52.418;20.742;2024-01-27T06:03:44;9.60;;;3.50;;
75171;SDS011;63750;52.418;20.742;2024-01-27T06:06:12;7.30;;;2.90;;
75171;SDS011;63750;52.418;20.742;2024-01-27T06:08:40;6.50;;;3.10;;
75171;SDS011;63750;52.418;20.742;2024-01-27T06:11:08;7.20;;;3.20;;
75171;SDS011;63750;52.418;20.742;2024-01-27T06:13:37;5.70;;;2.90;;
75171;SDS011;63750;52.418;20.742;2024-01-27T06:16:07;8.00;;;3.20;;
75171;SDS011;63750;52.418;20.742;2024-01-27T06:18:36;8.20;;;3.00;;
75171;SDS011;63750;52.418;20.742;2024-01-27T06:21:05;9.60;;;3.20;;
75171;SDS011;63750;52.418;20.742;2024-01-27T06:23:33;5.30;;;3.30;;
75171;SDS011;63750;52.418;20.742;2024-01-27T06:26:05;7.90;;;3.60;;
75171;SDS011;63750;52.418;20.742;2024-01-27T06:28:34;8.20;;;3.60;;
75171;SDS011;63750;52.418;20.742;2024-01-27T06:31:02;8.90;;;3.10;;
75171;SDS011;63750;52.418;20.742;2024-01-27T06:33:31;8.80;;;3.70;;
75171;SDS011;63750;52.418;20.742;2024-01-27T06:36:01;6.10;;;3.40;;
75171;SDS011;63750;52.418;20.742;2024-01-27T06:38:30;11.40;;;3.60;;
75171;SDS011;63750;52.418;20.742;2024-01-27T06:40:59;6.70;;;3.10;;
75171;SDS011;63750;52.418;20.742;2024-01-27T06:43:27;6.70;;;2.90;;
75171;SDS011;63750;52.418;20.742;2024-01-27T06:45:55;8.80;;;3.60;;
75171;SDS011;63750;52.418;20.742;2024-01-27T06:48:23;6.80;;;2.90;;
75171;SDS011;63750;52.418;20.742;2024-01-27T06:50:52;8.60;;;3.20;;
75171;SDS011;63750;52.418;20.742;2024-01-27T06:53:20;5.10;;;2.80;;
75171;SDS011;63750;52.418;20.742;2024-01-27T06:55:48;9.60;;;3.30;;
75171;SDS011;63750;52.418;20.742;2024-01-27T06:58:17;5.00;;;3.50;;
75171;SDS011;63750;52.418;20.742;2024-01-27T07:00:45;6.10;;;3.30;;
75171;SDS011;63750;52.418;20.742;2024-01-27T07:03:13;7.30;;;3.30;;
75171;SDS011;63750;52.418;20.742;2024-01-27T07:05:41;5.20;;;3.00;;
75171;SDS011;63750;52.418;20.742;2024-01-27T07:08:10;5.40;;;3.50;;
75171;SDS011;63750;52.418;20.742;2024-01-27T07:10:38;5.50;;;2.70;;
75171;SDS011;63750;52.418;20.742;2024-01-27T07:13:07;8.10;;;3.90;;
75171;SDS011;63750;52.418;20.742;2024-01-27T07:15:35;5.50;;;3.10;;
75171;SDS011;63750;52.418;20.742;2024-01-27T07:18:04;7.40;;;3.30;;
75171;SDS011;63750;52.418;20.742;2024-01-27T07:20:32;8.10;;;3.60;;
75171;SDS011;63750;52.418;20.742;2024-01-27T07:23:01;4.70;;;3.20;;
75171;SDS011;63750;52.418;20.742;2024-01-27T07:25:29;7.20;;;3.20;;
75171;SDS011;63750;52.418;20.742;2024-01-27T07:27:58;4.20;;;2.70;;
75171;SDS011;63750;52.418;20.742;2024-01-27T07:30:26;6.50;;;3.00;;
75171;SDS011;63750;52.418;20.742;2024-01-27T07:32:54;8.10;;;3.30;;
75171;SDS011;63750;52.418;20.742;2024-01-27T07:35:23;7.20;;;2.90;;
75171;SDS011;63750;52.418;20.742;2024-01-27T07:37:51;6.40;;;2.90;;
75171;SDS011;63750;52.418;20.742;2024-01-27T07:40:19;7.80;;;3.30;;
75171;SDS011;63750;52.418;20.742;2024-01-27T07:42:47;9.40;;;3.40;;
75171;SDS011;63750;52.418;20.742;2024-01-27T07:45:16;8.00;;;3.00;;
75171;SDS011;63750;52.418;20.742;2024-01-27T07:47:44;9.70;;;3.60;;
75171;SDS011;63750;52.418;20.742;2024-01-27T07:50:13;6.00;;;3.50;;
75171;SDS011;63750;52.418;20.742;2024-01-27T07:52:44;4.60;;;3.10;;
75171;SDS011;63750;52.418;20.742;2024-01-27T07:55:13;6.50;;;4.00;;
75171;SDS011;63750;52.418;20.742;2024-01-27T07:57:41;7.90;;;3.90;;
75171;SDS011;63750;52.418;20.742;2024-01-27T08:00:10;9.50;;;3.10;;
75171;SDS011;63750;52.418;20.742;2024-01-27T08:02:39;8.00;;;3.40;;
75171;SDS011;63750;52.418;20.742;2024-01-27T08:05:08;8.20;;;3.90;;
75171;SDS011;63750;52.418;20.742;2024-01-27T08:07:36;6.70;;;3.40;;
75171;SDS011;63750;52.418;20.742;2024-01-27T08:10:05;7.70;;;3.50;;
75171;SDS011;63750;52.418;20.742;2024-01-27T08:12:34;4.70;;;2.90;;
75171;SDS011;63750;52.418;20.742;2024-01-27T08:15:03;6.00;;;3.60;;
75171;SDS011;63750;52.418;20.742;2024-01-27T08:17:32;7.20;;;3.60;;
75171;SDS011;63750;52.418;20.742;2024-01-27T08:20:01;9.30;;;3.60;;
75171;SDS011;63750;52.418;20.742;2024-01-27T08:22:29;8.60;;;3.70;;
75171;SDS011;63750;52.418;20.742;2024-01-27T08:24:58;7.80;;;3.90;;
75171;SDS011;63750;52.418;20.742;2024-01-27T08:27:26;9.10;;;3.80;;
75171;SDS011;63750;52.418;20.742;2024-01-27T08:29:54;9.70;;;4.10;;
75171;SDS011;63750;52.418;20.742;2024-01-27T08:32:23;7.70;;;4.00;;
75171;SDS011;63750;52.418;20.742;2024-01-27T08:34:51;7.80;;;3.60;;
75171;SDS011;63750;52.418;20.742;2024-01-27T08:37:20;6.70;;;3.60;;
75171;SDS011;63750;52.418;20.742;2024-01-27T08:39:48;8.20;;;4.40;;
75171;SDS011;63750;52.418;20.742;2024-01-27T08:42:17;8.20;;;4.70;;
75171;SDS011;63750;52.418;20.742;2024-01-27T08:44:48;5.40;;;3.70;;
75171;SDS011;63750;52.418;20.742;2024-01-27T08:47:16;7.50;;;3.50;;
75171;SDS011;63750;52.418;20.742;2024-01-27T08:49:44;9.30;;;4.20;;
75171;SDS011;63750;52.418;20.742;2024-01-27T08:52:13;6.90;;;4.10;;
75171;SDS011;63750;52.418;20.742;2024-01-27T08:54:41;7.50;;;4.10;;
75171;SDS011;63750;52.418;20.742;2024-01-27T08:57:10;7.70;;;3.60;;
75171;SDS011;63750;52.418;20.742;2024-01-27T08:59:38;5.90;;;3.80;;
75171;SDS011;63750;52.418;20.742;2024-01-27T09:02:06;5.10;;;3.90;;
75171;SDS011;63750;52.418;20.742;2024-01-27T09:04:34;9.20;;;4.40;;
75171;SDS011;63750;52.418;20.742;2024-01-27T09:07:03;5.90;;;3.80;;
75171;SDS011;63750;52.418;20.742;2024-01-27T09:09:31;8.00;;;4.00;;
75171;SDS011;63750;52.418;20.742;2024-01-27T09:11:59;6.60;;;3.80;;
75171;SDS011;63750;52.418;20.742;2024-01-27T09:14:28;6.00;;;3.80;;
75171;SDS011;63750;52.418;20.742;2024-01-27T09:16:56;6.00;;;4.00;;
75171;SDS011;63750;52.418;20.742;2024-01-27T09:19:24;6.70;;;3.80;;
75171;SDS011;63750;52.418;20.742;2024-01-27T09:21:53;6.80;;;4.20;;
75171;SDS011;63750;52.418;20.742;2024-01-27T09:24:21;7.20;;;4.00;;
75171;SDS011;63750;52.418;20.742;2024-01-27T09:26:49;7.70;;;4.20;;
75171;SDS011;63750;52.418;20.742;2024-01-27T09:29:18;5.10;;;3.80;;
75171;SDS011;63750;52.418;20.742;2024-01-27T09:31:46;6.10;;;3.70;;
75171;SDS011;63750;52.418;20.742;2024-01-27T09:34:14;4.60;;;3.00;;
75171;SDS011;63750;52.418;20.742;2024-01-27T09:36:43;5.20;;;2.70;;
75171;SDS011;63750;52.418;20.742;2024-01-27T09:39:11;3.30;;;2.90;;
75171;SDS011;63750;52.418;20.742;2024-01-27T09:41:39;4.80;;;3.20;;
75171;SDS011;63750;52.418;20.742;2024-01-27T09:44:08;5.40;;;3.30;;
75171;SDS011;63750;52.418;20.742;2024-01-27T09:46:42;5.90;;;3.20;;
75171;SDS011;63750;52.418;20.742;2024-01-27T09:49:11;6.60;;;3.70;;
75171;SDS011;63750;52.418;20.742;2024-01-27T09:51:42;6.30;;;3.70;;
75171;SDS011;63750;52.418;20.742;2024-01-27T09:54:10;6.00;;;4.40;;
75171;SDS011;63750;52.418;20.742;2024-01-27T09:56:39;6.70;;;5.10;;
75171;SDS011;63750;52.418;20.742;2024-01-27T09:59:07;7.00;;;4.20;;
75171;SDS011;63750;52.418;20.742;2024-01-27T10:01:36;12.10;;;4.70;;
75171;SDS011;63750;52.418;20.742;2024-01-27T10:04:05;5.10;;;4.20;;
75171;SDS011;63750;52.418;20.742;2024-01-27T10:06:36;6.30;;;4.50;;
75171;SDS011;63750;52.418;20.742;2024-01-27T10:09:10;6.30;;;4.10;;
75171;SDS011;63750;52.418;20.742;2024-01-27T10:11:39;5.60;;;4.00;;
75171;SDS011;63750;52.418;20.742;2024-01-27T10:14:12;5.00;;;3.40;;
75171;SDS011;63750;52.418;20.742;2024-01-27T10:16:41;4.20;;;3.20;;
75171;SDS011;63750;52.418;20.742;2024-01-27T10:19:14;6.70;;;3.70;;
75171;SDS011;63750;52.418;20.742;2024-01-27T10:21:43;5.80;;;3.60;;
75171;SDS011;63750;52.418;20.742;2024-01-27T10:24:12;4.10;;;2.60;;
75171;SDS011;63750;52.418;20.742;2024-01-27T10:26:40;3.90;;;3.00;;
75171;SDS011;63750;52.418;20.742;2024-01-27T10:29:09;4.20;;;3.00;;
75171;SDS011;63750;52.418;20.742;2024-01-27T10:31:38;3.40;;;2.70;;
75171;SDS011;63750;52.418;20.742;2024-01-27T10:34:06;4.10;;;3.00;;
75171;SDS011;63750;52.418;20.742;2024-01-27T10:36:42;3.60;;;3.10;;
75171;SDS011;63750;52.418;20.742;2024-01-27T10:39:18;3.60;;;3.00;;
75171;SDS011;63750;52.418;20.742;2024-01-27T10:41:47;4.20;;;3.10;;
75171;SDS011;63750;52.418;20.742;2024-01-27T10:44:17;3.30;;;3.00;;
75171;SDS011;63750;52.418;20.742;2024-01-27T10:46:46;4.00;;;3.10;;
75171;SDS011;63750;52.418;20.742;2024-01-27T10:49:15;5.80;;;3.50;;
75171;SDS011;63750;52.418;20.742;2024-01-27T10:51:45;4.90;;;3.70;;
75171;SDS011;63750;52.418;20.742;2024-01-27T10:54:21;4.00;;;3.20;;
75171;SDS011;63750;52.418;20.742;2024-01-27T10:56:51;4.60;;;3.60;;
75171;SDS011;63750;52.418;20.742;2024-01-27T10:59:22;3.80;;;3.10;;
75171;SDS011;63750;52.418;20.742;2024-01-27T11:01:52;5.50;;;3.40;;
75171;SDS011;63750;52.418;20.742;2024-01-27T11:04:21;5.20;;;3.50;;
75171;SDS011;63750;52.418;20.742;2024-01-27T11:06:49;5.80;;;3.90;;
75171;SDS011;63750;52.418;20.742;2024-01-27T11:09:18;6.30;;;3.90;;
75171;SDS011;63750;52.418;20.742;2024-01-27T11:11:47;5.80;;;4.00;;
75171;SDS011;63750;52.418;20.742;2024-01-27T11:14:16;4.80;;;3.50;;
75171;SDS011;63750;52.418;20.742;2024-01-27T11:16:45;3.90;;;3.00;;
75171;SDS011;63750;52.418;20.742;2024-01-27T11:19:14;5.20;;;3.50;;
75171;SDS011;63750;52.418;20.742;2024-01-27T11:21:43;5.30;;;3.80;;
75171;SDS011;63750;52.418;20.742;2024-01-27T11:24:16;4.70;;;3.30;;
75171;SDS011;63750;52.418;20.742;2024-01-27T11:30:06;5.70;;;3.70;;
75171;SDS011;63750;52.418;20.742;2024-01-27T11:32:53;3.60;;;3.10;;
75171;SDS011;63750;52.418;20.742;2024-01-27T11:35:22;4.60;;;4.00;;
75171;SDS011;63750;52.418;20.742;2024-01-27T11:37:51;4.70;;;3.40;;
75171;SDS011;63750;52.418;20.742;2024-01-27T11:40:19;5.70;;;3.20;;
75171;SDS011;63750;52.418;20.742;2024-01-27T11:42:54;4.00;;;3.20;;
75171;SDS011;63750;52.418;20.742;2024-01-27T11:45:23;5.50;;;3.80;;
75171;SDS011;63750;52.418;20.742;2024-01-27T11:47:52;6.00;;;3.90;;
75171;SDS011;63750;52.418;20.742;2024-01-27T11:50:20;5.50;;;3.90;;
75171;SDS011;63750;52.418;20.742;2024-01-27T11:52:56;5.70;;;4.10;;
75171;SDS011;63750;52.418;20.742;2024-01-27T11:55:24;6.70;;;4.00;;
75171;SDS011;63750;52.418;20.742;2024-01-27T11:57:52;6.60;;;4.80;;
75171;SDS011;63750;52.418;20.742;2024-01-27T12:00:21;6.40;;;4.10;;
75171;SDS011;63750;52.418;20.742;2024-01-27T12:02:51;6.10;;;4.70;;
75171;SDS011;63750;52.418;20.742;2024-01-27T12:05:19;6.80;;;4.50;;
75171;SDS011;63750;52.418;20.742;2024-01-27T12:07:48;6.70;;;4.70;;
75171;SDS011;63750;52.418;20.742;2024-01-27T12:10:16;6.90;;;4.80;;
75171;SDS011;63750;52.418;20.742;2024-01-27T12:12:45;7.60;;;5.30;;
75171;SDS011;63750;52.418;20.742;2024-01-27T12:15:14;7.20;;;5.10;;
75171;SDS011;63750;52.418;20.742;2024-01-27T12:17:42;8.20;;;5.30;;
75171;SDS011;63750;52.418;20.742;2024-01-27T12:20:18;7.50;;;4.60;;
75171;SDS011;63750;52.418;20.742;2024-01-27T12:22:49;7.30;;;4.80;;
75171;SDS011;63750;52.418;20.742;2024-01-27T12:25:21;8.70;;;5.20;;
75171;SDS011;63750;52.418;20.742;2024-01-27T12:27:49;8.00;;;5.20;;
75171;SDS011;63750;52.418;20.742;2024-01-27T12:30:18;7.20;;;4.30;;
75171;SDS011;63750;52.418;20.742;2024-01-27T12:32:47;5.30;;;4.30;;
75171;SDS011;63750;52.418;20.742;2024-01-27T12:35:15;6.40;;;4.40;;
75171;SDS011;63750;52.418;20.742;2024-01-27T12:37:44;6.60;;;4.50;;
75171;SDS011;63750;52.418;20.742;2024-01-27T12:40:19;5.60;;;4.40;;
75171;SDS011;63750;52.418;20.742;2024-01-27T12:42:48;10.20;;;6.30;;
75171;SDS011;63750;52.418;20.742;2024-01-27T12:45:16;5.70;;;4.10;;
75171;SDS011;63750;52.418;20.742;2024-01-27T12:47:45;5.50;;;4.10;;
75171;SDS011;63750;52.418;20.742;2024-01-27T12:50:14;4.90;;;4.30;;
75171;SDS011;63750;52.418;20.742;2024-01-27T12:52:42;5.70;;;4.20;;
75171;SDS011;63750;52.418;20.742;2024-01-27T12:55:11;6.00;;;4.10;;
75171;SDS011;63750;52.418;20.742;2024-01-27T12:57:39;5.00;;;4.40;;
75171;SDS011;63750;52.418;20.742;2024-01-27T13:00:08;5.60;;;4.20;;
75171;SDS011;63750;52.418;20.742;2024-01-27T13:02:39;7.70;;;5.10;;
75171;SDS011;63750;52.418;20.742;2024-01-27T13:05:07;7.80;;;5.00;;
75171;SDS011;63750;52.418;20.742;2024-01-27T13:07:36;13.10;;;5.70;;
75171;SDS011;63750;52.418;20.742;2024-01-27T13:10:05;11.90;;;6.50;;
75171;SDS011;63750;52.418;20.742;2024-01-27T13:12:34;8.30;;;4.80;;
75171;SDS011;63750;52.418;20.742;2024-01-27T13:15:03;6.60;;;4.90;;
75171;SDS011;63750;52.418;20.742;2024-01-27T13:17:32;6.00;;;5.00;;
75171;SDS011;63750;52.418;20.742;2024-01-27T13:20:00;6.10;;;4.70;;
75171;SDS011;63750;52.418;20.742;2024-01-27T13:22:29;6.10;;;4.70;;
75171;SDS011;63750;52.418;20.742;2024-01-27T13:24:57;5.50;;;4.10;;
75171;SDS011;63750;52.418;20.742;2024-01-27T13:27:25;6.30;;;3.90;;
75171;SDS011;63750;52.418;20.742;2024-01-27T13:29:54;6.50;;;4.10;;
75171;SDS011;63750;52.418;20.742;2024-01-27T13:32:25;6.70;;;4.40;;
75171;SDS011;63750;52.418;20.742;2024-01-27T13:34:53;7.40;;;4.40;;
75171;SDS011;63750;52.418;20.742;2024-01-27T13:37:22;5.80;;;3.90;;
75171;SDS011;63750;52.418;20.742;2024-01-27T13:39:50;5.70;;;4.00;;
75171;SDS011;63750;52.418;20.742;2024-01-27T13:42:18;6.10;;;4.40;;
75171;SDS011;63750;52.418;20.742;2024-01-27T13:44:47;4.60;;;3.60;;
75171;SDS011;63750;52.418;20.742;2024-01-27T13:47:17;5.20;;;3.50;;
75171;SDS011;63750;52.418;20.742;2024-01-27T13:49:46;4.90;;;3.10;;
75171;SDS011;63750;52.418;20.742;2024-01-27T13:52:15;3.80;;;3.30;;
75171;SDS011;63750;52.418;20.742;2024-01-27T13:54:43;4.00;;;2.80;;
75171;SDS011;63750;52.418;20.742;2024-01-27T13:57:11;4.90;;;3.30;;
75171;SDS011;63750;52.418;20.742;2024-01-27T13:59:41;4.00;;;3.10;;
75171;SDS011;63750;52.418;20.742;2024-01-27T14:02:09;3.30;;;3.00;;
75171;SDS011;63750;52.418;20.742;2024-01-27T14:04:37;3.30;;;2.90;;
75171;SDS011;63750;52.418;20.742;2024-01-27T14:07:06;5.10;;;3.70;;
75171;SDS011;63750;52.418;20.742;2024-01-27T14:09:34;4.80;;;3.70;;
75171;SDS011;63750;52.418;20.742;2024-01-27T14:12:03;5.60;;;3.90;;
75171;SDS011;63750;52.418;20.742;2024-01-27T14:14:33;4.80;;;3.40;;
75171;SDS011;63750;52.418;20.742;2024-01-27T14:17:01;3.90;;;3.50;;
75171;SDS011;63750;52.418;20.742;2024-01-27T14:19:30;3.40;;;3.10;;
75171;SDS011;63750;52.418;20.742;2024-01-27T14:21:58;3.70;;;3.00;;
75171;SDS011;63750;52.418;20.742;2024-01-27T14:24:27;7.60;;;4.40;;
75171;SDS011;63750;52.418;20.742;2024-01-27T14:26:55;8.30;;;5.20;;
75171;SDS011;63750;52.418;20.742;2024-01-27T14:29:23;6.30;;;4.50;;
75171;SDS011;63750;52.418;20.742;2024-01-27T14:31:52;6.50;;;4.80;;
75171;SDS011;63750;52.418;20.742;2024-01-27T14:34:20;7.40;;;5.30;;
75171;SDS011;63750;52.418;20.742;2024-01-27T14:36:49;5.70;;;4.50;;
75171;SDS011;63750;52.418;20.742;2024-01-27T14:39:17;8.00;;;5.00;;
75171;SDS011;63750;52.418;20.742;2024-01-27T14:41:45;6.10;;;4.60;;
75171;SDS011;63750;52.418;20.742;2024-01-27T14:44:15;6.80;;;5.30;;
75171;SDS011;63750;52.418;20.742;2024-01-27T14:46:43;5.10;;;4.50;;